sensor_id;sensor_type;location;lat;lon;timestamp;P1;durP1;ratioP1;P2;durP2;ratioP2
21354;SDS011;10835;50.148;19.760;2023-02-11T00:01:35;29.67;;;11.27;;
21354;SDS011;10835;50.148;19.760;2023-02-11T00:04:04;29.60;;;9.63;;
21354;SDS011;10835;50.148;19.760;2023-02-11T00:06:34;29.65;;;11.57;;
21354;SDS011;10835;50.148;19.760;2023-02-11T00:09:04;26.20;;;10.90;;
21354;SDS011;10835;50.148;19.760;2023-02-11T00:11:32;34.17;;;11.75;;
21354;SDS011;10835;50.148;19.760;2023-02-11T00:14:03;26.92;;;11.23;;
21354;SDS011;10835;50.148;19.760;2023-02-11T00:16:34;26.40;;;11.88;;
21354;SDS011;10835;50.148;19.760;2023-02-11T00:19:02;26.80;;;11.80;;
21354;SDS011;10835;50.148;19.760;2023-02-11T00:21:32;26.02;;;10.43;;
21354;SDS011;10835;50.148;19.760;2023-02-11T00:24:02;24.90;;;10.15;;
21354;SDS011;10835;50.148;19.760;2023-02-11T00:26:31;29.73;;;10.40;;
21354;SDS011;10835;50.148;19.760;2023-02-11T00:29:02;28.10;;;12.20;;
21354;SDS011;10835;50.148;19.760;2023-02-11T00:31:31;38.13;;;13.85;;
21354;SDS011;10835;50.148;19.760;2023-02-11T00:34:00;36.30;;;12.38;;
21354;SDS011;10835;50.148;19.760;2023-02-11T00:36:28;25.08;;;10.85;;
21354;SDS011;10835;50.148;19.760;2023-02-11T00:38:57;35.90;;;14.18;;
21354;SDS011;10835;50.148;19.760;2023-02-11T00:41:28;32.25;;;12.70;;
21354;SDS011;10835;50.148;19.760;2023-02-11T00:43:58;28.83;;;12.07;;
21354;SDS011;10835;50.148;19.760;2023-02-11T00:46:26;37.83;;;14.07;;
21354;SDS011;10835;50.148;19.760;2023-02-11T00:48:54;32.03;;;12.50;;
21354;SDS011;10835;50.148;19.760;2023-02-11T00:51:23;33.42;;;11.98;;
21354;SDS011;10835;50.148;19.760;2023-02-11T00:53:54;31.33;;;12.55;;
21354;SDS011;10835;50.148;19.760;2023-02-11T00:56:22;33.85;;;10.70;;
21354;SDS011;10835;50.148;19.760;2023-02-11T00:58:52;40.03;;;13.40;;
21354;SDS011;10835;50.148;19.760;2023-02-11T01:01:20;31.45;;;12.35;;
21354;SDS011;10835;50.148;19.760;2023-02-11T01:03:49;39.78;;;13.35;;
21354;SDS011;10835;50.148;19.760;2023-02-11T01:06:17;30.67;;;11.27;;
21354;SDS011;10835;50.148;19.760;2023-02-11T01:08:45;39.47;;;13.82;;
21354;SDS011;10835;50.148;19.760;2023-02-11T01:11:15;33.85;;;12.13;;
21354;SDS011;10835;50.148;19.760;2023-02-11T01:13:46;33.53;;;12.27;;
21354;SDS011;10835;50.148;19.760;2023-02-11T01:16:17;35.88;;;12.00;;
21354;SDS011;10835;50.148;19.760;2023-02-11T01:18:46;29.63;;;13.15;;
21354;SDS011;10835;50.148;19.760;2023-02-11T01:21:16;26.10;;;10.90;;
21354;SDS011;10835;50.148;19.760;2023-02-11T01:23:44;35.78;;;13.20;;
21354;SDS011;10835;50.148;19.760;2023-02-11T01:26:12;24.20;;;8.50;;
21354;SDS011;10835;50.148;19.760;2023-02-11T01:28:43;28.23;;;10.73;;
21354;SDS011;10835;50.148;19.760;2023-02-11T01:31:13;34.13;;;13.63;;
21354;SDS011;10835;50.148;19.760;2023-02-11T01:33:45;27.98;;;12.60;;
21354;SDS011;10835;50.148;19.760;2023-02-11T01:36:13;26.30;;;10.00;;
21354;SDS011;10835;50.148;19.760;2023-02-11T01:38:44;36.72;;;12.70;;
21354;SDS011;10835;50.148;19.760;2023-02-11T01:41:12;30.95;;;13.65;;
21354;SDS011;10835;50.148;19.760;2023-02-11T01:43:42;32.33;;;13.48;;
21354;SDS011;10835;50.148;19.760;2023-02-11T01:49:00;31.35;;;13.43;;
21354;SDS011;10835;50.148;19.760;2023-02-11T01:51:33;31.92;;;13.85;;
21354;SDS011;10835;50.148;19.760;2023-02-11T01:54:05;37.20;;;13.45;;
21354;SDS011;10835;50.148;19.760;2023-02-11T01:56:54;30.80;;;12.57;;
21354;SDS011;10835;50.148;19.760;2023-02-11T01:59:44;29.05;;;13.05;;
21354;SDS011;10835;50.148;19.760;2023-02-11T02:02:22;33.70;;;12.60;;
21354;SDS011;10835;50.148;19.760;2023-02-11T02:04:56;25.58;;;11.48;;
21354;SDS011;10835;50.148;19.760;2023-02-11T02:07:31;32.97;;;11.80;;
21354;SDS011;10835;50.148;19.760;2023-02-11T02:10:05;30.67;;;11.45;;
21354;SDS011;10835;50.148;19.760;2023-02-11T02:12:37;31.92;;;12.30;;
21354;SDS011;10835;50.148;19.760;2023-02-11T02:15:19;32.03;;;11.88;;
21354;SDS011;10835;50.148;19.760;2023-02-11T02:17:53;28.35;;;12.05;;
21354;SDS011;10835;50.148;19.760;2023-02-11T02:20:40;23.38;;;11.10;;
21354;SDS011;10835;50.148;19.760;2023-02-11T02:23:50;22.70;;;10.65;;
21354;SDS011;10835;50.148;19.760;2023-02-11T02:26:36;29.52;;;13.18;;
21354;SDS011;10835;50.148;19.760;2023-02-11T02:29:37;24.60;;;9.80;;
21354;SDS011;10835;50.148;19.760;2023-02-11T02:32:29;13.73;;;5.97;;
21354;SDS011;10835;50.148;19.760;2023-02-11T02:35:07;21.98;;;8.50;;
21354;SDS011;10835;50.148;19.760;2023-02-11T02:37:45;17.10;;;9.55;;
21354;SDS011;10835;50.148;19.760;2023-02-11T02:40:18;12.82;;;6.68;;
21354;SDS011;10835;50.148;19.760;2023-02-11T02:42:50;29.50;;;9.95;;
21354;SDS011;10835;50.148;19.760;2023-02-11T02:45:19;19.45;;;9.02;;
21354;SDS011;10835;50.148;19.760;2023-02-11T02:47:49;16.98;;;7.15;;
21354;SDS011;10835;50.148;19.760;2023-02-11T02:50:18;10.77;;;5.50;;
21354;SDS011;10835;50.148;19.760;2023-02-11T02:52:57;20.35;;;8.85;;
21354;SDS011;10835;50.148;19.760;2023-02-11T02:58:34;21.85;;;9.98;;
21354;SDS011;10835;50.148;19.760;2023-02-11T03:01:30;24.65;;;9.05;;
21354;SDS011;10835;50.148;19.760;2023-02-11T03:04:10;23.85;;;10.38;;
21354;SDS011;10835;50.148;19.760;2023-02-11T03:06:46;23.50;;;7.60;;
21354;SDS011;10835;50.148;19.760;2023-02-11T03:09:21;28.92;;;11.10;;
21354;SDS011;10835;50.148;19.760;2023-02-11T03:11:54;26.98;;;12.85;;
21354;SDS011;10835;50.148;19.760;2023-02-11T03:14:23;34.28;;;12.35;;
21354;SDS011;10835;50.148;19.760;2023-02-11T03:16:53;32.13;;;13.88;;
21354;SDS011;10835;50.148;19.760;2023-02-11T03:19:25;24.02;;;8.90;;
21354;SDS011;10835;50.148;19.760;2023-02-11T03:21:57;35.42;;;11.02;;
21354;SDS011;10835;50.148;19.760;2023-02-11T03:24:27;19.15;;;7.78;;
21354;SDS011;10835;50.148;19.760;2023-02-11T03:26:59;32.45;;;12.25;;
21354;SDS011;10835;50.148;19.760;2023-02-11T03:29:35;22.90;;;9.15;;
21354;SDS011;10835;50.148;19.760;2023-02-11T03:32:11;33.40;;;11.80;;
21354;SDS011;10835;50.148;19.760;2023-02-11T03:34:46;26.48;;;10.68;;
21354;SDS011;10835;50.148;19.760;2023-02-11T03:37:19;19.17;;;8.30;;
21354;SDS011;10835;50.148;19.760;2023-02-11T03:39:53;26.45;;;10.70;;
21354;SDS011;10835;50.148;19.760;2023-02-11T03:42:25;28.40;;;11.40;;
21354;SDS011;10835;50.148;19.760;2023-02-11T03:45:01;25.10;;;9.68;;
21354;SDS011;10835;50.148;19.760;2023-02-11T03:47:33;21.75;;;9.63;;
21354;SDS011;10835;50.148;19.760;2023-02-11T03:50:06;16.40;;;8.02;;
21354;SDS011;10835;50.148;19.760;2023-02-11T03:52:37;10.50;;;5.45;;
21354;SDS011;10835;50.148;19.760;2023-02-11T03:55:06;20.08;;;8.05;;
21354;SDS011;10835;50.148;19.760;2023-02-11T03:57:38;26.55;;;12.63;;
21354;SDS011;10835;50.148;19.760;2023-02-11T04:00:07;20.45;;;9.55;;
21354;SDS011;10835;50.148;19.760;2023-02-11T04:02:39;17.92;;;8.48;;
21354;SDS011;10835;50.148;19.760;2023-02-11T04:05:10;18.38;;;8.73;;
21354;SDS011;10835;50.148;19.760;2023-02-11T04:07:40;20.50;;;9.50;;
21354;SDS011;10835;50.148;19.760;2023-02-11T04:10:09;16.58;;;7.65;;
21354;SDS011;10835;50.148;19.760;2023-02-11T04:12:38;12.75;;;5.75;;
21354;SDS011;10835;50.148;19.760;2023-02-11T04:15:07;19.85;;;9.05;;
21354;SDS011;10835;50.148;19.760;2023-02-11T04:17:35;24.13;;;10.40;;
21354;SDS011;10835;50.148;19.760;2023-02-11T04:20:04;25.70;;;10.07;;
21354;SDS011;10835;50.148;19.760;2023-02-11T04:22:34;25.90;;;10.98;;
21354;SDS011;10835;50.148;19.760;2023-02-11T04:25:02;18.02;;;7.70;;
21354;SDS011;10835;50.148;19.760;2023-02-11T04:27:33;21.13;;;9.48;;
21354;SDS011;10835;50.148;19.760;2023-02-11T04:30:02;23.52;;;10.95;;
21354;SDS011;10835;50.148;19.760;2023-02-11T04:32:31;21.90;;;10.35;;
21354;SDS011;10835;50.148;19.760;2023-02-11T04:35:00;27.08;;;10.88;;
21354;SDS011;10835;50.148;19.760;2023-02-11T04:37:28;27.88;;;12.55;;
21354;SDS011;10835;50.148;19.760;2023-02-11T04:39:58;19.33;;;8.85;;
21354;SDS011;10835;50.148;19.760;2023-02-11T04:42:26;26.45;;;9.80;;
21354;SDS011;10835;50.148;19.760;2023-02-11T04:44:54;22.45;;;9.43;;
21354;SDS011;10835;50.148;19.760;2023-02-11T04:47:23;18.35;;;7.78;;
21354;SDS011;10835;50.148;19.760;2023-02-11T04:49:51;26.65;;;9.18;;
21354;SDS011;10835;50.148;19.760;2023-02-11T04:52:19;22.63;;;9.70;;
21354;SDS011;10835;50.148;19.760;2023-02-11T04:54:47;22.92;;;9.48;;
21354;SDS011;10835;50.148;19.760;2023-02-11T04:57:17;21.33;;;9.45;;
21354;SDS011;10835;50.148;19.760;2023-02-11T04:59:45;23.63;;;10.85;;
21354;SDS011;10835;50.148;19.760;2023-02-11T05:02:14;23.67;;;8.70;;
21354;SDS011;10835;50.148;19.760;2023-02-11T05:04:44;20.75;;;8.43;;
21354;SDS011;10835;50.148;19.760;2023-02-11T05:07:13;21.67;;;9.05;;
21354;SDS011;10835;50.148;19.760;2023-02-11T05:09:41;25.45;;;9.90;;
21354;SDS011;10835;50.148;19.760;2023-02-11T05:12:11;25.58;;;9.65;;
21354;SDS011;10835;50.148;19.760;2023-02-11T05:14:41;22.83;;;9.98;;
21354;SDS011;10835;50.148;19.760;2023-02-11T05:17:09;24.90;;;10.35;;
21354;SDS011;10835;50.148;19.760;2023-02-11T05:19:40;25.40;;;10.93;;
21354;SDS011;10835;50.148;19.760;2023-02-11T05:22:08;21.05;;;9.55;;
21354;SDS011;10835;50.148;19.760;2023-02-11T05:24:37;21.30;;;9.15;;
21354;SDS011;10835;50.148;19.760;2023-02-11T05:27:05;23.45;;;11.40;;
21354;SDS011;10835;50.148;19.760;2023-02-11T05:29:33;17.65;;;8.95;;
21354;SDS011;10835;50.148;19.760;2023-02-11T05:32:06;23.23;;;8.57;;
21354;SDS011;10835;50.148;19.760;2023-02-11T05:34:36;20.63;;;8.15;;
21354;SDS011;10835;50.148;19.760;2023-02-11T05:37:05;21.20;;;7.25;;
21354;SDS011;10835;50.148;19.760;2023-02-11T05:39:33;20.73;;;9.38;;
21354;SDS011;10835;50.148;19.760;2023-02-11T05:42:01;17.98;;;8.75;;
21354;SDS011;10835;50.148;19.760;2023-02-11T05:44:29;25.83;;;12.25;;
21354;SDS011;10835;50.148;19.760;2023-02-11T05:46:58;21.52;;;8.55;;
21354;SDS011;10835;50.148;19.760;2023-02-11T05:49:27;16.88;;;6.65;;
21354;SDS011;10835;50.148;19.760;2023-02-11T05:51:56;14.40;;;7.53;;
21354;SDS011;10835;50.148;19.760;2023-02-11T05:54:24;10.57;;;5.10;;
21354;SDS011;10835;50.148;19.760;2023-02-11T05:56:54;22.17;;;9.30;;
21354;SDS011;10835;50.148;19.760;2023-02-11T05:59:22;14.93;;;8.60;;
21354;SDS011;10835;50.148;19.760;2023-02-11T06:01:50;11.57;;;4.90;;
21354;SDS011;10835;50.148;19.760;2023-02-11T06:04:19;14.02;;;6.22;;
21354;SDS011;10835;50.148;19.760;2023-02-11T06:06:48;15.02;;;7.28;;
21354;SDS011;10835;50.148;19.760;2023-02-11T06:09:18;14.85;;;7.90;;
21354;SDS011;10835;50.148;19.760;2023-02-11T06:11:46;11.27;;;4.60;;
21354;SDS011;10835;50.148;19.760;2023-02-11T06:14:14;10.52;;;5.50;;
21354;SDS011;10835;50.148;19.760;2023-02-11T06:16:43;18.67;;;7.20;;
21354;SDS011;10835;50.148;19.760;2023-02-11T06:19:14;24.17;;;10.52;;
21354;SDS011;10835;50.148;19.760;2023-02-11T06:21:42;8.80;;;4.72;;
21354;SDS011;10835;50.148;19.760;2023-02-11T06:24:11;19.05;;;9.02;;
21354;SDS011;10835;50.148;19.760;2023-02-11T06:26:41;22.23;;;10.60;;
21354;SDS011;10835;50.148;19.760;2023-02-11T06:29:10;19.20;;;9.10;;
21354;SDS011;10835;50.148;19.760;2023-02-11T06:31:38;21.98;;;7.20;;
21354;SDS011;10835;50.148;19.760;2023-02-11T06:34:06;9.90;;;4.45;;
21354;SDS011;10835;50.148;19.760;2023-02-11T06:36:36;12.05;;;6.32;;
21354;SDS011;10835;50.148;19.760;2023-02-11T06:39:06;19.20;;;7.20;;
21354;SDS011;10835;50.148;19.760;2023-02-11T06:41:36;16.27;;;7.47;;
21354;SDS011;10835;50.148;19.760;2023-02-11T06:44:04;18.35;;;7.97;;
21354;SDS011;10835;50.148;19.760;2023-02-11T06:46:33;9.45;;;5.88;;
21354;SDS011;10835;50.148;19.760;2023-02-11T06:49:01;13.15;;;5.22;;
21354;SDS011;10835;50.148;19.760;2023-02-11T06:51:29;16.50;;;8.68;;
21354;SDS011;10835;50.148;19.760;2023-02-11T06:54:00;4.13;;;2.53;;
21354;SDS011;10835;50.148;19.760;2023-02-11T06:56:28;10.70;;;6.13;;
21354;SDS011;10835;50.148;19.760;2023-02-11T06:58:57;11.57;;;5.88;;
21354;SDS011;10835;50.148;19.760;2023-02-11T07:01:26;17.50;;;7.40;;
21354;SDS011;10835;50.148;19.760;2023-02-11T07:03:55;10.18;;;5.28;;
21354;SDS011;10835;50.148;19.760;2023-02-11T07:06:23;8.02;;;4.03;;
21354;SDS011;10835;50.148;19.760;2023-02-11T07:08:54;18.60;;;10.00;;
21354;SDS011;10835;50.148;19.760;2023-02-11T07:11:23;11.13;;;5.63;;
21354;SDS011;10835;50.148;19.760;2023-02-11T07:13:54;11.27;;;5.80;;
21354;SDS011;10835;50.148;19.760;2023-02-11T07:16:24;5.78;;;4.65;;
21354;SDS011;10835;50.148;19.760;2023-02-11T07:18:53;10.65;;;3.47;;
21354;SDS011;10835;50.148;19.760;2023-02-11T07:21:24;14.13;;;6.47;;
21354;SDS011;10835;50.148;19.760;2023-02-11T07:23:52;10.25;;;5.00;;
21354;SDS011;10835;50.148;19.760;2023-02-11T07:26:22;14.25;;;7.28;;
21354;SDS011;10835;50.148;19.760;2023-02-11T07:28:53;13.82;;;5.68;;
21354;SDS011;10835;50.148;19.760;2023-02-11T07:31:22;17.23;;;8.20;;
21354;SDS011;10835;50.148;19.760;2023-02-11T07:33:54;14.85;;;7.70;;
21354;SDS011;10835;50.148;19.760;2023-02-11T07:36:26;14.68;;;6.28;;
21354;SDS011;10835;50.148;19.760;2023-02-11T07:38:55;10.38;;;5.28;;
21354;SDS011;10835;50.148;19.760;2023-02-11T07:41:23;6.45;;;3.42;;
21354;SDS011;10835;50.148;19.760;2023-02-11T07:43:52;11.02;;;5.35;;
21354;SDS011;10835;50.148;19.760;2023-02-11T07:46:23;15.02;;;6.30;;
21354;SDS011;10835;50.148;19.760;2023-02-11T07:48:54;20.80;;;9.25;;
21354;SDS011;10835;50.148;19.760;2023-02-11T07:51:23;10.95;;;5.38;;
21354;SDS011;10835;50.148;19.760;2023-02-11T07:53:56;10.90;;;5.72;;
21354;SDS011;10835;50.148;19.760;2023-02-11T07:56:26;13.65;;;6.10;;
21354;SDS011;10835;50.148;19.760;2023-02-11T07:58:55;15.38;;;7.63;;
21354;SDS011;10835;50.148;19.760;2023-02-11T08:01:28;11.30;;;3.90;;
21354;SDS011;10835;50.148;19.760;2023-02-11T08:03:56;19.38;;;9.45;;
21354;SDS011;10835;50.148;19.760;2023-02-11T08:06:27;13.20;;;7.93;;
21354;SDS011;10835;50.148;19.760;2023-02-11T08:09:02;20.13;;;11.70;;
21354;SDS011;10835;50.148;19.760;2023-02-11T08:11:32;11.80;;;6.57;;
21354;SDS011;10835;50.148;19.760;2023-02-11T08:14:00;8.63;;;3.72;;
21354;SDS011;10835;50.148;19.760;2023-02-11T08:16:31;7.82;;;5.32;;
21354;SDS011;10835;50.148;19.760;2023-02-11T08:19:01;8.35;;;4.85;;
21354;SDS011;10835;50.148;19.760;2023-02-11T08:21:30;12.98;;;7.45;;
21354;SDS011;10835;50.148;19.760;2023-02-11T08:24:00;12.30;;;5.47;;
21354;SDS011;10835;50.148;19.760;2023-02-11T08:26:28;6.65;;;3.95;;
21354;SDS011;10835;50.148;19.760;2023-02-11T08:29:00;19.83;;;8.50;;
21354;SDS011;10835;50.148;19.760;2023-02-11T08:31:34;9.23;;;4.95;;
21354;SDS011;10835;50.148;19.760;2023-02-11T08:34:07;7.72;;;4.63;;
21354;SDS011;10835;50.148;19.760;2023-02-11T08:36:37;26.90;;;13.20;;
21354;SDS011;10835;50.148;19.760;2023-02-11T08:39:08;15.80;;;7.43;;
21354;SDS011;10835;50.148;19.760;2023-02-11T08:41:49;7.63;;;4.80;;
21354;SDS011;10835;50.148;19.760;2023-02-11T08:44:19;20.10;;;10.43;;
21354;SDS011;10835;50.148;19.760;2023-02-11T08:46:50;10.07;;;6.32;;
21354;SDS011;10835;50.148;19.760;2023-02-11T08:49:23;19.17;;;9.02;;
21354;SDS011;10835;50.148;19.760;2023-02-11T08:51:51;11.32;;;5.88;;
21354;SDS011;10835;50.148;19.760;2023-02-11T08:54:24;10.15;;;5.20;;
21354;SDS011;10835;50.148;19.760;2023-02-11T08:56:53;8.65;;;4.97;;
21354;SDS011;10835;50.148;19.760;2023-02-11T08:59:23;19.60;;;8.90;;
21354;SDS011;10835;50.148;19.760;2023-02-11T09:01:53;25.58;;;10.13;;
21354;SDS011;10835;50.148;19.760;2023-02-11T09:04:21;3.72;;;2.88;;
21354;SDS011;10835;50.148;19.760;2023-02-11T09:06:49;11.73;;;6.00;;
21354;SDS011;10835;50.148;19.760;2023-02-11T09:09:18;10.65;;;6.30;;
21354;SDS011;10835;50.148;19.760;2023-02-11T09:11:46;14.10;;;7.05;;
21354;SDS011;10835;50.148;19.760;2023-02-11T09:14:15;15.75;;;7.60;;
21354;SDS011;10835;50.148;19.760;2023-02-11T09:16:45;14.70;;;8.15;;
21354;SDS011;10835;50.148;19.760;2023-02-11T09:19:16;15.50;;;6.55;;
21354;SDS011;10835;50.148;19.760;2023-02-11T09:21:45;21.35;;;10.75;;
21354;SDS011;10835;50.148;19.760;2023-02-11T09:24:13;12.15;;;5.57;;
21354;SDS011;10835;50.148;19.760;2023-02-11T09:26:41;16.73;;;8.13;;
21354;SDS011;10835;50.148;19.760;2023-02-11T09:29:10;5.88;;;3.03;;
21354;SDS011;10835;50.148;19.760;2023-02-11T09:31:40;13.82;;;6.68;;
21354;SDS011;10835;50.148;19.760;2023-02-11T09:34:11;12.77;;;5.95;;
21354;SDS011;10835;50.148;19.760;2023-02-11T09:36:46;18.08;;;7.82;;
21354;SDS011;10835;50.148;19.760;2023-02-11T09:39:15;7.88;;;4.15;;
21354;SDS011;10835;50.148;19.760;2023-02-11T09:42:01;17.88;;;8.52;;
21354;SDS011;10835;50.148;19.760;2023-02-11T09:44:50;16.70;;;8.43;;
21354;SDS011;10835;50.148;19.760;2023-02-11T09:47:24;19.50;;;9.88;;
21354;SDS011;10835;50.148;19.760;2023-02-11T09:49:57;24.52;;;12.60;;
21354;SDS011;10835;50.148;19.760;2023-02-11T09:52:31;12.40;;;5.20;;
21354;SDS011;10835;50.148;19.760;2023-02-11T09:55:10;12.27;;;5.47;;
21354;SDS011;10835;50.148;19.760;2023-02-11T09:57:44;21.95;;;10.85;;
21354;SDS011;10835;50.148;19.760;2023-02-11T10:00:16;14.65;;;7.38;;
21354;SDS011;10835;50.148;19.760;2023-02-11T10:06:02;14.77;;;8.13;;
21354;SDS011;10835;50.148;19.760;2023-02-11T10:08:58;18.08;;;10.30;;
21354;SDS011;10835;50.148;19.760;2023-02-11T10:11:37;11.45;;;5.65;;
21354;SDS011;10835;50.148;19.760;2023-02-11T10:14:19;15.93;;;6.88;;
21354;SDS011;10835;50.148;19.760;2023-02-11T10:16:57;22.95;;;12.93;;
21354;SDS011;10835;50.148;19.760;2023-02-11T10:19:42;17.23;;;10.50;;
21354;SDS011;10835;50.148;19.760;2023-02-11T10:22:24;11.85;;;5.55;;
21354;SDS011;10835;50.148;19.760;2023-02-11T10:24:57;14.82;;;8.65;;
21354;SDS011;10835;50.148;19.760;2023-02-11T10:27:27;16.25;;;8.73;;
21354;SDS011;10835;50.148;19.760;2023-02-11T10:29:58;11.43;;;5.45;;
21354;SDS011;10835;50.148;19.760;2023-02-11T10:32:32;15.07;;;6.18;;
21354;SDS011;10835;50.148;19.760;2023-02-11T10:35:11;23.58;;;12.40;;
21354;SDS011;10835;50.148;19.760;2023-02-11T10:37:45;15.90;;;8.73;;
21354;SDS011;10835;50.148;19.760;2023-02-11T10:40:16;16.15;;;8.10;;
21354;SDS011;10835;50.148;19.760;2023-02-11T10:42:48;15.80;;;8.85;;
21354;SDS011;10835;50.148;19.760;2023-02-11T10:45:22;12.63;;;7.57;;
21354;SDS011;10835;50.148;19.760;2023-02-11T10:47:54;12.68;;;5.75;;
21354;SDS011;10835;50.148;19.760;2023-02-11T10:50:23;20.88;;;9.45;;
21354;SDS011;10835;50.148;19.760;2023-02-11T10:52:55;17.98;;;9.40;;
21354;SDS011;10835;50.148;19.760;2023-02-11T10:55:39;20.50;;;9.40;;
21354;SDS011;10835;50.148;19.760;2023-02-11T10:58:27;9.40;;;6.13;;
21354;SDS011;10835;50.148;19.760;2023-02-11T11:00:58;14.10;;;5.80;;
21354;SDS011;10835;50.148;19.760;2023-02-11T11:03:35;16.63;;;8.88;;
21354;SDS011;10835;50.148;19.760;2023-02-11T11:06:07;10.50;;;6.50;;
21354;SDS011;10835;50.148;19.760;2023-02-11T11:08:38;13.63;;;6.60;;
21354;SDS011;10835;50.148;19.760;2023-02-11T11:11:08;16.27;;;7.20;;
21354;SDS011;10835;50.148;19.760;2023-02-11T11:13:41;21.13;;;8.40;;
21354;SDS011;10835;50.148;19.760;2023-02-11T11:16:23;14.50;;;7.68;;
21354;SDS011;10835;50.148;19.760;2023-02-11T11:19:13;18.35;;;10.85;;
21354;SDS011;10835;50.148;19.760;2023-02-11T11:21:47;26.98;;;14.45;;
21354;SDS011;10835;50.148;19.760;2023-02-11T11:24:18;17.90;;;9.77;;
21354;SDS011;10835;50.148;19.760;2023-02-11T11:26:52;29.27;;;12.77;;
21354;SDS011;10835;50.148;19.760;2023-02-11T11:29:23;24.23;;;11.27;;
21354;SDS011;10835;50.148;19.760;2023-02-11T11:32:02;17.30;;;7.85;;
21354;SDS011;10835;50.148;19.760;2023-02-11T11:34:33;20.30;;;9.80;;
21354;SDS011;10835;50.148;19.760;2023-02-11T11:37:09;31.10;;;14.57;;
21354;SDS011;10835;50.148;19.760;2023-02-11T11:39:40;15.95;;;9.07;;
21354;SDS011;10835;50.148;19.760;2023-02-11T11:42:23;11.13;;;6.15;;
21354;SDS011;10835;50.148;19.760;2023-02-11T11:44:55;12.15;;;6.35;;
21354;SDS011;10835;50.148;19.760;2023-02-11T11:47:26;24.90;;;10.93;;
21354;SDS011;10835;50.148;19.760;2023-02-11T11:50:20;18.45;;;10.25;;
21354;SDS011;10835;50.148;19.760;2023-02-11T11:52:55;17.02;;;7.70;;
21354;SDS011;10835;50.148;19.760;2023-02-11T11:55:32;33.28;;;17.08;;
21354;SDS011;10835;50.148;19.760;2023-02-11T11:58:08;28.83;;;15.15;;
21354;SDS011;10835;50.148;19.760;2023-02-11T12:00:42;20.33;;;10.93;;
21354;SDS011;10835;50.148;19.760;2023-02-11T12:03:33;28.75;;;11.63;;
21354;SDS011;10835;50.148;19.760;2023-02-11T12:06:20;22.13;;;10.88;;
21354;SDS011;10835;50.148;19.760;2023-02-11T12:09:00;17.77;;;9.02;;
21354;SDS011;10835;50.148;19.760;2023-02-11T12:11:43;16.40;;;8.27;;
21354;SDS011;10835;50.148;19.760;2023-02-11T12:14:27;16.17;;;8.45;;
21354;SDS011;10835;50.148;19.760;2023-02-11T12:17:02;10.52;;;5.97;;
21354;SDS011;10835;50.148;19.760;2023-02-11T12:19:49;19.65;;;8.40;;
21354;SDS011;10835;50.148;19.760;2023-02-11T12:22:30;17.85;;;9.45;;
21354;SDS011;10835;50.148;19.760;2023-02-11T12:28:06;20.35;;;8.82;;
21354;SDS011;10835;50.148;19.760;2023-02-11T12:30:47;6.78;;;4.07;;
21354;SDS011;10835;50.148;19.760;2023-02-11T12:33:24;13.55;;;6.97;;
21354;SDS011;10835;50.148;19.760;2023-02-11T12:36:06;27.38;;;12.95;;
21354;SDS011;10835;50.148;19.760;2023-02-11T12:38:53;24.52;;;10.57;;
21354;SDS011;10835;50.148;19.760;2023-02-11T12:41:36;16.60;;;6.97;;
21354;SDS011;10835;50.148;19.760;2023-02-11T12:44:53;12.55;;;7.60;;
21354;SDS011;10835;50.148;19.760;2023-02-11T12:47:38;13.80;;;6.43;;
21354;SDS011;10835;50.148;19.760;2023-02-11T12:50:16;17.13;;;8.75;;
21354;SDS011;10835;50.148;19.760;2023-02-11T12:52:56;27.55;;;12.85;;
21354;SDS011;10835;50.148;19.760;2023-02-11T12:55:37;13.02;;;6.03;;
21354;SDS011;10835;50.148;19.760;2023-02-11T12:58:11;9.63;;;5.55;;
21354;SDS011;10835;50.148;19.760;2023-02-11T13:00:47;13.98;;;6.03;;
21354;SDS011;10835;50.148;19.760;2023-02-11T13:03:20;17.17;;;7.95;;
21354;SDS011;10835;50.148;19.760;2023-02-11T13:05:52;23.58;;;12.25;;
21354;SDS011;10835;50.148;19.760;2023-02-11T13:08:24;11.13;;;6.93;;
21354;SDS011;10835;50.148;19.760;2023-02-11T13:10:57;16.73;;;8.40;;
21354;SDS011;10835;50.148;19.760;2023-02-11T13:13:29;15.70;;;8.32;;
21354;SDS011;10835;50.148;19.760;2023-02-11T13:16:04;23.48;;;12.55;;
21354;SDS011;10835;50.148;19.760;2023-02-11T13:18:38;11.20;;;5.50;;
21354;SDS011;10835;50.148;19.760;2023-02-11T13:21:24;10.25;;;5.10;;
21354;SDS011;10835;50.148;19.760;2023-02-11T13:24:00;20.35;;;9.30;;
21354;SDS011;10835;50.148;19.760;2023-02-11T13:26:41;10.88;;;6.30;;
21354;SDS011;10835;50.148;19.760;2023-02-11T13:29:19;19.42;;;6.68;;
21354;SDS011;10835;50.148;19.760;2023-02-11T13:31:57;14.45;;;8.68;;
21354;SDS011;10835;50.148;19.760;2023-02-11T13:34:53;12.52;;;7.47;;
21354;SDS011;10835;50.148;19.760;2023-02-11T13:37:23;19.00;;;9.18;;
21354;SDS011;10835;50.148;19.760;2023-02-11T13:39:55;16.20;;;7.28;;
21354;SDS011;10835;50.148;19.760;2023-02-11T13:42:24;11.85;;;5.82;;
21354;SDS011;10835;50.148;19.760;2023-02-11T13:44:53;24.98;;;11.63;;
21354;SDS011;10835;50.148;19.760;2023-02-11T13:47:27;29.30;;;15.88;;
21354;SDS011;10835;50.148;19.760;2023-02-11T13:49:57;13.80;;;7.68;;
21354;SDS011;10835;50.148;19.760;2023-02-11T13:52:29;15.52;;;7.00;;
21354;SDS011;10835;50.148;19.760;2023-02-11T13:55:01;19.25;;;9.68;;
21354;SDS011;10835;50.148;19.760;2023-02-11T13:57:37;21.65;;;10.93;;
21354;SDS011;10835;50.148;19.760;2023-02-11T14:03:22;12.35;;;6.72;;
21354;SDS011;10835;50.148;19.760;2023-02-11T14:06:12;15.32;;;7.45;;
21354;SDS011;10835;50.148;19.760;2023-02-11T14:09:09;20.67;;;8.45;;
21354;SDS011;10835;50.148;19.760;2023-02-11T14:12:15;12.75;;;7.13;;
21354;SDS011;10835;50.148;19.760;2023-02-11T14:15:00;23.63;;;11.73;;
21354;SDS011;10835;50.148;19.760;2023-02-11T14:18:01;9.48;;;6.03;;
21354;SDS011;10835;50.148;19.760;2023-02-11T14:20:51;20.15;;;9.38;;
21354;SDS011;10835;50.148;19.760;2023-02-11T14:23:40;9.25;;;4.20;;
21354;SDS011;10835;50.148;19.760;2023-02-11T14:26:19;11.63;;;6.90;;
21354;SDS011;10835;50.148;19.760;2023-02-11T14:28:59;15.45;;;8.60;;
21354;SDS011;10835;50.148;19.760;2023-02-11T14:31:34;21.17;;;10.07;;
21354;SDS011;10835;50.148;19.760;2023-02-11T14:34:13;18.48;;;9.80;;
21354;SDS011;10835;50.148;19.760;2023-02-11T14:37:02;20.33;;;9.85;;
21354;SDS011;10835;50.148;19.760;2023-02-11T14:39:47;10.52;;;5.65;;
21354;SDS011;10835;50.148;19.760;2023-02-11T14:42:29;18.35;;;7.18;;
21354;SDS011;10835;50.148;19.760;2023-02-11T14:45:02;10.38;;;4.90;;
21354;SDS011;10835;50.148;19.760;2023-02-11T14:47:34;14.95;;;7.82;;
21354;SDS011;10835;50.148;19.760;2023-02-11T14:50:12;12.30;;;6.38;;
21354;SDS011;10835;50.148;19.760;2023-02-11T14:52:47;13.88;;;5.95;;
21354;SDS011;10835;50.148;19.760;2023-02-11T14:55:20;17.25;;;8.10;;
21354;SDS011;10835;50.148;19.760;2023-02-11T14:58:06;15.50;;;7.20;;
21354;SDS011;10835;50.148;19.760;2023-02-11T15:00:46;23.73;;;10.35;;
21354;SDS011;10835;50.148;19.760;2023-02-11T15:03:23;16.80;;;7.47;;
21354;SDS011;10835;50.148;19.760;2023-02-11T15:05:54;26.05;;;11.88;;
21354;SDS011;10835;50.148;19.760;2023-02-11T15:08:24;27.27;;;11.23;;
21354;SDS011;10835;50.148;19.760;2023-02-11T15:10:53;19.98;;;9.82;;